createdAt,value
2018-11-21T00:01:00.630Z,30.40
2018-11-21T00:03:48.416Z,29.67
2018-11-21T00:06:36.250Z,33.23
2018-11-21T00:09:24.013Z,31.83
2018-11-21T00:12:11.831Z,30.43
2018-11-21T00:14:59.681Z,32.07
2018-11-21T00:17:47.550Z,34.33
2018-11-21T00:20:35.331Z,32.03
2018-11-21T00:23:23.246Z,31.13
2018-11-21T00:26:11.029Z,31.13
2018-11-21T00:28:58.840Z,32.87
2018-11-21T00:31:46.637Z,31.23
2018-11-21T00:34:34.424Z,33.07
2018-11-21T00:37:22.943Z,32.57
2018-11-21T00:40:11.529Z,31.43
2018-11-21T00:42:59.360Z,30.27
2018-11-21T00:45:47.192Z,33.67
2018-11-21T00:48:34.991Z,32.13
2018-11-21T00:51:22.809Z,34.07
2018-11-21T00:54:10.551Z,34.90
2018-11-21T00:56:58.542Z,30.27
2018-11-21T00:59:46.314Z,34.73
2018-11-21T01:02:34.083Z,32.63
2018-11-21T01:05:21.858Z,32.97
2018-11-21T01:08:09.636Z,34.90
2018-11-21T01:10:57.400Z,34.07
2018-11-21T01:13:45.237Z,32.77
2018-11-21T01:16:33.066Z,34.67
2018-11-21T01:19:20.850Z,32.53
2018-11-21T01:22:08.690Z,33.47
2018-11-21T01:24:56.444Z,37.30
2018-11-21T01:27:44.251Z,33.07
2018-11-21T01:30:32.744Z,32.80
2018-11-21T01:33:20.593Z,38.27
2018-11-21T01:36:08.377Z,35.43
2018-11-21T01:38:56.207Z,36.03
2018-11-21T01:41:43.973Z,41.77
2018-11-21T01:44:31.840Z,36.17
2018-11-21T01:47:19.623Z,35.33
2018-11-21T01:50:07.786Z,35.97
2018-11-21T01:52:55.563Z,39.43
2018-11-21T01:55:43.389Z,40.87
2018-11-21T01:58:31.340Z,35.50
2018-11-21T02:01:19.142Z,34.03
2018-11-21T02:04:06.935Z,42.37
2018-11-21T02:06:54.746Z,37.77
2018-11-21T02:09:42.542Z,38.87
2018-11-21T02:12:30.390Z,40.00
2018-11-21T02:15:18.187Z,41.47
2018-11-21T02:18:06.062Z,36.77
2018-11-21T02:20:53.849Z,41.60
2018-11-21T02:23:41.729Z,40.10
2018-11-21T02:26:29.497Z,40.97
2018-11-21T02:29:17.287Z,37.43
2018-11-21T02:32:05.598Z,37.37
2018-11-21T02:34:53.446Z,37.37
2018-11-21T02:37:41.246Z,37.17
2018-11-21T02:40:29.083Z,40.00
2018-11-21T02:43:16.872Z,44.60
2018-11-21T02:46:04.994Z,38.53
2018-11-21T02:48:52.749Z,39.57
2018-11-21T02:51:40.625Z,40.77
2018-11-21T02:54:28.406Z,40.07
2018-11-21T02:57:36.125Z,38.27
2018-11-21T03:00:24.718Z,40.27
2018-11-21T03:03:12.503Z,41.80
2018-11-21T03:06:00.277Z,39.10
2018-11-21T03:08:48.143Z,43.57
2018-11-21T03:11:35.945Z,39.33
2018-11-21T03:17:17.141Z,36.73
2018-11-21T03:20:04.949Z,40.27
2018-11-21T03:22:52.761Z,39.90
2018-11-21T03:25:40.576Z,42.27
2018-11-21T03:28:28.355Z,38.60
2018-11-21T03:31:16.134Z,42.97
2018-11-21T03:34:03.934Z,38.93
2018-11-21T03:36:52.960Z,36.17
2018-11-21T03:39:40.809Z,36.53
2018-11-21T03:42:28.578Z,41.50
2018-11-21T03:45:16.401Z,41.43
2018-11-21T03:48:04.167Z,40.10
2018-11-21T03:50:51.964Z,37.80
2018-11-21T03:53:39.771Z,37.87
2018-11-21T03:56:27.552Z,36.00
2018-11-21T03:59:15.356Z,36.73
2018-11-21T04:02:03.177Z,34.73
2018-11-21T04:04:50.950Z,35.03
2018-11-21T04:07:38.890Z,36.43
2018-11-21T04:10:26.720Z,38.43
2018-11-21T04:16:21.433Z,37.37
2018-11-21T04:19:09.206Z,38.80
2018-11-21T04:21:57.023Z,34.60
2018-11-21T04:24:44.778Z,32.37
2018-11-21T04:27:32.593Z,39.10
2018-11-21T04:30:20.358Z,36.10
2018-11-21T04:33:08.159Z,36.17
2018-11-21T04:35:55.968Z,41.63
2018-11-21T04:38:43.760Z,36.90
2018-11-21T04:41:31.538Z,36.03
2018-11-21T04:44:19.351Z,39.37
2018-11-21T04:47:07.126Z,36.67
2018-11-21T04:49:54.941Z,34.87
2018-11-21T04:52:42.708Z,33.27
2018-11-21T04:55:30.509Z,35.40
2018-11-21T04:58:18.000Z,36.57
2018-11-21T05:01:05.542Z,34.90
2018-11-21T05:03:53.319Z,40.33
2018-11-21T05:06:41.116Z,37.30
2018-11-21T05:09:28.887Z,39.80
2018-11-21T05:12:16.666Z,33.47
2018-11-21T05:15:04.568Z,37.77
2018-11-21T05:17:52.364Z,42.33
2018-11-21T05:20:40.130Z,36.27
2018-11-21T05:23:27.963Z,40.93
2018-11-21T05:26:15.716Z,36.57
2018-11-21T05:29:03.549Z,39.37
2018-11-21T05:31:51.334Z,43.00
2018-11-21T05:34:39.480Z,37.30
2018-11-21T05:37:27.277Z,38.53
2018-11-21T05:40:15.097Z,38.07
2018-11-21T05:43:02.897Z,42.03
2018-11-21T05:45:50.679Z,40.03
2018-11-21T05:48:38.467Z,41.27
2018-11-21T05:51:26.259Z,42.03
2018-11-21T05:54:14.068Z,40.03
2018-11-21T05:57:01.871Z,38.17
2018-11-21T05:59:49.648Z,43.30
2018-11-21T06:02:37.547Z,39.13
2018-11-21T06:05:25.375Z,42.80
2018-11-21T06:08:13.141Z,41.17
2018-11-21T06:11:00.976Z,39.97
2018-11-21T06:13:48.773Z,36.93
2018-11-21T06:16:36.738Z,38.83
2018-11-21T06:19:24.529Z,39.67
2018-11-21T06:22:12.310Z,39.77
2018-11-21T06:25:00.112Z,37.97
2018-11-21T06:27:47.879Z,34.27
2018-11-21T06:30:35.689Z,40.57
2018-11-21T06:33:23.476Z,38.77
2018-11-21T06:36:11.310Z,41.40
2018-11-21T06:38:59.077Z,36.80
2018-11-21T06:41:46.953Z,42.57
2018-11-21T06:44:34.738Z,43.40
2018-11-21T06:47:22.541Z,40.37
2018-11-21T06:50:10.318Z,36.93
2018-11-21T06:52:58.356Z,41.30
2018-11-21T06:55:46.140Z,40.80
2018-11-21T06:58:33.943Z,45.37
2018-11-21T07:01:21.741Z,40.00
2018-11-21T07:04:09.522Z,41.67
2018-11-21T07:06:57.301Z,38.73
2018-11-21T07:09:45.106Z,42.27
2018-11-21T07:12:32.881Z,37.90
2018-11-21T07:15:20.657Z,40.00
2018-11-21T07:18:08.462Z,38.20
2018-11-21T07:20:56.285Z,38.93
2018-11-21T07:23:44.063Z,42.17
2018-11-21T07:26:31.894Z,41.57
2018-11-21T07:29:19.670Z,43.10
2018-11-21T07:32:07.486Z,41.70
2018-11-21T07:34:55.440Z,38.37
2018-11-21T07:37:43.240Z,37.23
2018-11-21T07:40:31.042Z,37.37
2018-11-21T07:43:18.842Z,36.80
2018-11-21T07:46:06.688Z,35.17
2018-11-21T07:48:54.522Z,34.23
2018-11-21T07:51:42.268Z,36.80
2018-11-21T07:54:30.088Z,39.07
2018-11-21T07:57:38.656Z,37.33
2018-11-21T08:00:47.571Z,39.67
2018-11-21T08:03:54.482Z,35.30
2018-11-21T08:06:48.269Z,36.40
2018-11-21T08:09:55.197Z,37.47
2018-11-21T08:13:02.076Z,42.33
2018-11-21T08:16:09.018Z,38.37
2018-11-21T08:19:15.529Z,36.17
2018-11-21T08:22:22.449Z,40.20
2018-11-21T08:25:29.376Z,33.83
2018-11-21T08:28:36.305Z,40.40
2018-11-21T08:31:24.088Z,39.77
2018-11-21T08:34:11.845Z,41.13
2018-11-21T08:36:59.708Z,35.50
2018-11-21T08:39:47.489Z,34.07
2018-11-21T08:42:35.323Z,37.20
2018-11-21T08:45:23.086Z,37.40
2018-11-21T08:48:11.164Z,36.47
2018-11-21T08:50:58.917Z,31.50
2018-11-21T08:53:46.709Z,36.47
2018-11-21T08:56:34.497Z,39.30
2018-11-21T08:59:22.295Z,38.07
2018-11-21T09:02:10.088Z,35.53
2018-11-21T09:04:57.893Z,39.30
2018-11-21T09:07:45.657Z,35.43
2018-11-21T09:13:20.457Z,35.47
2018-11-21T09:16:08.273Z,39.00
2018-11-21T09:18:56.047Z,34.73
2018-11-21T09:21:43.868Z,37.00
2018-11-21T09:24:32.081Z,39.30
2018-11-21T09:27:19.895Z,35.90
2018-11-21T09:30:08.997Z,37.33
2018-11-21T09:32:57.520Z,34.37
2018-11-21T09:35:45.354Z,38.23
2018-11-21T09:38:33.165Z,36.77
2018-11-21T09:41:20.940Z,36.47
2018-11-21T09:44:08.811Z,36.47
2018-11-21T09:46:56.541Z,33.27
2018-11-21T09:49:44.338Z,39.60
2018-11-21T09:52:32.097Z,38.37
2018-11-21T09:55:19.913Z,36.87
2018-11-21T09:58:07.762Z,38.30
2018-11-21T10:01:14.886Z,34.43
2018-11-21T10:04:02.689Z,33.03
2018-11-21T10:06:50.555Z,35.87
2018-11-21T10:09:41.359Z,34.47
2018-11-21T10:12:29.155Z,36.40
2018-11-21T10:15:16.938Z,40.93
2018-11-21T10:18:05.037Z,36.27
2018-11-21T10:20:52.985Z,36.77
2018-11-21T10:23:40.816Z,41.90
2018-11-21T10:26:28.589Z,34.90
2018-11-21T10:29:16.418Z,41.80
2018-11-21T10:32:04.195Z,37.40
2018-11-21T10:34:52.008Z,38.10
2018-11-21T10:37:39.772Z,36.27
2018-11-21T10:40:27.610Z,34.00
2018-11-21T10:43:15.375Z,40.87
2018-11-21T10:46:03.175Z,40.03
2018-11-21T10:48:50.961Z,35.13
2018-11-21T10:51:38.760Z,35.47
2018-11-21T10:54:26.547Z,37.03
2018-11-21T10:57:14.350Z,38.10
2018-11-21T11:00:02.144Z,40.43
2018-11-21T11:03:09.038Z,34.60
2018-11-21T11:06:15.973Z,36.70
2018-11-21T11:09:22.903Z,48.83
2018-11-21T11:12:17.162Z,37.77
2018-11-21T11:15:24.234Z,37.30
2018-11-21T11:18:31.129Z,38.80
2018-11-21T11:21:38.057Z,37.27
2018-11-21T11:24:44.979Z,32.70
2018-11-21T11:27:44.800Z,36.33
2018-11-21T11:30:51.775Z,38.40
2018-11-21T11:33:58.681Z,35.93
2018-11-21T11:37:05.582Z,36.57
2018-11-21T11:40:12.491Z,38.13
2018-11-21T11:43:11.448Z,35.73
2018-11-21T11:46:18.341Z,35.57
2018-11-21T11:49:25.260Z,39.33
2018-11-21T11:52:32.146Z,37.90
2018-11-21T11:55:39.108Z,38.27
2018-11-21T11:58:46.022Z,39.37
2018-11-21T12:01:52.926Z,36.07
2018-11-21T12:04:59.839Z,38.37
2018-11-21T12:08:00.734Z,41.47
2018-11-21T12:11:07.658Z,37.47
2018-11-21T12:14:14.544Z,37.13
2018-11-21T12:17:12.692Z,36.23
2018-11-21T12:20:19.577Z,43.00
2018-11-21T12:23:26.501Z,38.90
2018-11-21T12:26:33.421Z,40.60
2018-11-21T12:29:42.065Z,39.30
2018-11-21T12:32:47.223Z,40.87
2018-11-21T12:35:54.162Z,43.30
2018-11-21T12:39:01.088Z,36.60
2018-11-21T12:42:07.983Z,37.40
2018-11-21T12:45:14.945Z,40.53
2018-11-21T12:48:21.858Z,38.03
2018-11-21T12:51:28.737Z,37.97
2018-11-21T12:54:35.667Z,38.70
2018-11-21T12:57:34.358Z,41.90
2018-11-21T13:00:41.380Z,38.13
2018-11-21T13:03:48.328Z,37.57
2018-11-21T13:06:55.245Z,40.03
2018-11-21T13:10:02.184Z,39.70
2018-11-21T13:12:50.182Z,40.47
2018-11-21T13:15:57.110Z,39.10
2018-11-21T13:19:04.029Z,42.73
2018-11-21T13:22:10.957Z,39.27
2018-11-21T13:25:17.878Z,39.87
2018-11-21T13:28:24.815Z,41.53
2018-11-21T13:31:31.702Z,38.73
2018-11-21T13:34:38.637Z,37.03
2018-11-21T13:37:45.543Z,38.57
2018-11-21T13:40:52.494Z,38.50
2018-11-21T13:43:59.450Z,42.93
2018-11-21T13:47:06.435Z,43.33
2018-11-21T13:50:13.345Z,42.70
2018-11-21T13:53:20.297Z,42.57
2018-11-21T13:56:08.269Z,45.77
2018-11-21T13:58:56.163Z,43.60
2018-11-21T14:01:43.987Z,42.90
2018-11-21T14:04:31.783Z,43.30
2018-11-21T14:07:19.615Z,42.53
2018-11-21T14:10:08.316Z,39.47
2018-11-21T14:12:56.100Z,44.27
2018-11-21T14:15:43.871Z,44.60
2018-11-21T14:18:31.691Z,45.20
2018-11-21T14:21:19.458Z,42.60
2018-11-21T14:24:07.273Z,44.53
2018-11-21T14:26:58.138Z,42.83
2018-11-21T14:29:45.749Z,43.53
2018-11-21T14:32:33.531Z,43.17
2018-11-21T14:35:21.348Z,43.07
2018-11-21T14:38:09.162Z,44.83
2018-11-21T14:40:56.976Z,42.10
2018-11-21T14:43:44.707Z,45.47
2018-11-21T14:46:32.544Z,41.80
2018-11-21T14:49:20.356Z,42.37
2018-11-21T14:52:08.181Z,43.10
2018-11-21T14:54:55.967Z,42.33
2018-11-21T14:57:43.756Z,45.67
2018-11-21T15:00:31.571Z,41.73
2018-11-21T15:03:19.376Z,41.80
2018-11-21T15:06:07.154Z,42.13
2018-11-21T15:08:54.962Z,46.50
2018-11-21T15:11:43.030Z,45.40
2018-11-21T15:14:30.833Z,45.77
2018-11-21T15:17:19.120Z,43.70
2018-11-21T15:20:08.428Z,35.87
2018-11-21T15:22:56.196Z,43.80
2018-11-21T15:25:44.016Z,43.20
2018-11-21T15:28:31.997Z,47.23
2018-11-21T15:31:19.914Z,47.17
2018-11-21T15:34:07.717Z,46.10
2018-11-21T15:36:55.533Z,52.40
2018-11-21T15:39:43.320Z,44.90
2018-11-21T15:42:31.126Z,41.43
2018-11-21T15:45:20.325Z,47.77
2018-11-21T15:51:02.031Z,42.20
2018-11-21T15:53:49.868Z,43.57
2018-11-21T15:56:37.836Z,45.80
2018-11-21T15:59:25.632Z,46.53
2018-11-21T16:02:13.421Z,46.10
2018-11-21T16:05:01.208Z,45.83
2018-11-21T16:07:49.392Z,46.00
2018-11-21T16:10:38.930Z,46.30
2018-11-21T16:13:26.734Z,48.67
2018-11-21T16:16:14.497Z,48.03
2018-11-21T16:19:02.341Z,46.43
2018-11-21T16:21:50.261Z,42.37
2018-11-21T16:24:38.088Z,45.40
2018-11-21T16:27:25.898Z,47.50
2018-11-21T16:30:15.648Z,44.30
2018-11-21T16:33:03.411Z,46.23
2018-11-21T16:35:51.195Z,42.10
2018-11-21T16:38:38.979Z,43.17
2018-11-21T16:41:26.912Z,42.57
2018-11-21T16:47:21.697Z,43.03
2018-11-21T16:50:11.034Z,46.53
2018-11-21T16:52:58.869Z,44.87
2018-11-21T16:55:46.723Z,44.97
2018-11-21T16:58:34.514Z,45.97
2018-11-21T17:01:22.344Z,41.77
2018-11-21T17:04:10.132Z,43.97
2018-11-21T17:06:58.055Z,43.13
2018-11-21T17:09:46.096Z,46.07
2018-11-21T17:12:27.207Z,44.50
2018-11-21T17:15:08.383Z,43.03
2018-11-21T17:17:36.875Z,41.47
2018-11-21T17:20:06.882Z,43.83
2018-11-21T17:22:35.287Z,44.70
2018-11-21T17:25:03.906Z,50.20
2018-11-21T17:27:32.334Z,48.07
2018-11-21T17:30:00.828Z,54.13
2018-11-21T17:32:29.212Z,43.43
2018-11-21T17:34:57.682Z,42.30
2018-11-21T17:37:26.128Z,46.73
2018-11-21T17:39:54.574Z,44.00
2018-11-21T17:42:22.997Z,47.83
2018-11-21T17:44:51.418Z,44.80
2018-11-21T17:47:19.835Z,45.70
2018-11-21T17:49:48.243Z,46.10
2018-11-21T17:52:16.706Z,39.13
2018-11-21T17:54:45.126Z,46.60
2018-11-21T17:57:13.591Z,41.40
2018-11-21T17:59:41.996Z,48.73
2018-11-21T18:02:10.452Z,41.67
2018-11-21T18:04:38.872Z,47.80
2018-11-21T18:07:07.327Z,43.97
2018-11-21T18:09:35.778Z,48.10
2018-11-21T18:12:04.179Z,48.83
2018-11-21T18:14:32.608Z,43.87
2018-11-21T18:17:01.038Z,47.43
2018-11-21T18:19:29.421Z,47.73
2018-11-21T18:21:57.834Z,46.90
2018-11-21T18:24:26.284Z,45.47
2018-11-21T18:26:54.823Z,46.87
2018-11-21T18:29:23.276Z,47.67
2018-11-21T18:31:51.682Z,42.03
2018-11-21T18:34:20.171Z,46.67
2018-11-21T18:36:48.687Z,46.67
2018-11-21T18:39:17.162Z,46.17
2018-11-21T18:41:45.597Z,46.67
2018-11-21T18:44:14.090Z,46.83
2018-11-21T18:46:42.517Z,45.07
2018-11-21T18:49:11.019Z,45.27
2018-11-21T18:51:39.462Z,45.67
2018-11-21T18:54:07.899Z,51.47
2018-11-21T18:57:04.576Z,48.00
2018-11-21T18:59:52.632Z,45.83
2018-11-21T19:02:21.091Z,44.00
2018-11-21T19:04:49.533Z,49.63
2018-11-21T19:07:18.084Z,51.00
2018-11-21T19:09:46.561Z,50.63
2018-11-21T19:12:15.035Z,48.90
2018-11-21T19:14:43.471Z,50.87
2018-11-21T19:17:11.933Z,44.33
2018-11-21T19:19:40.356Z,46.40
2018-11-21T19:22:08.789Z,43.43
2018-11-21T19:24:37.259Z,48.80
2018-11-21T19:27:06.100Z,48.63
2018-11-21T19:29:34.565Z,45.93
2018-11-21T19:32:03.105Z,45.97
2018-11-21T19:34:31.600Z,46.83
2018-11-21T19:37:00.046Z,45.87
2018-11-21T19:39:28.457Z,44.67
2018-11-21T19:41:57.005Z,46.87
2018-11-21T19:44:25.492Z,45.83
2018-11-21T19:46:53.921Z,45.33
2018-11-21T19:49:22.439Z,44.73
2018-11-21T19:51:51.125Z,44.50
2018-11-21T19:54:19.615Z,45.13
2018-11-21T19:56:48.120Z,46.30
2018-11-21T19:59:16.565Z,45.80
2018-11-21T20:01:45.140Z,45.33
2018-11-21T20:04:13.546Z,43.93
2018-11-21T20:06:41.975Z,45.47
2018-11-21T20:09:11.570Z,41.63
2018-11-21T20:11:40.089Z,44.00
2018-11-21T20:14:08.640Z,41.50
2018-11-21T20:16:37.075Z,44.77
2018-11-21T20:19:05.973Z,49.30
2018-11-21T20:21:34.483Z,47.50
2018-11-21T20:24:02.921Z,40.73
2018-11-21T20:26:31.397Z,47.17
2018-11-21T20:29:00.297Z,43.87
2018-11-21T20:31:28.754Z,40.83
2018-11-21T20:33:57.235Z,46.20
2018-11-21T20:36:25.714Z,46.53
2018-11-21T20:38:54.129Z,43.20
2018-11-21T20:41:22.603Z,42.07
2018-11-21T20:43:50.992Z,42.57
2018-11-21T20:46:19.489Z,42.53
2018-11-21T20:48:47.864Z,41.87
2018-11-21T20:51:16.283Z,41.67
2018-11-21T20:53:44.810Z,44.30
2018-11-21T20:56:13.283Z,44.23
2018-11-21T20:58:41.715Z,42.30
2018-11-21T21:01:10.172Z,42.33
2018-11-21T21:03:38.677Z,45.50
2018-11-21T21:06:07.048Z,43.33
2018-11-21T21:08:35.563Z,44.77
2018-11-21T21:11:04.017Z,43.57
2018-11-21T21:13:32.421Z,47.20
2018-11-21T21:16:00.823Z,45.30
2018-11-21T21:18:29.248Z,42.87
2018-11-21T21:20:57.694Z,43.40
2018-11-21T21:23:26.165Z,44.70
2018-11-21T21:25:54.566Z,42.10
2018-11-21T21:28:23.059Z,40.50
2018-11-21T21:30:51.546Z,46.40
2018-11-21T21:33:20.064Z,48.50
2018-11-21T21:35:48.487Z,45.10
2018-11-21T21:38:16.862Z,42.63
2018-11-21T21:40:45.283Z,45.30
2018-11-21T21:43:13.674Z,40.77
2018-11-21T21:45:42.116Z,41.83
2018-11-21T21:48:10.560Z,41.47
2018-11-21T21:50:39.158Z,45.07
2018-11-21T21:53:07.637Z,43.83
2018-11-21T21:55:36.200Z,42.47
2018-11-21T21:58:04.620Z,44.73
2018-11-21T22:00:32.999Z,47.30
2018-11-21T22:03:02.005Z,50.27
2018-11-21T22:05:30.776Z,44.70
2018-11-21T22:07:59.207Z,39.77
2018-11-21T22:10:27.622Z,44.30
2018-11-21T22:12:56.017Z,45.47
2018-11-21T22:15:25.734Z,47.13
2018-11-21T22:17:54.990Z,47.33
2018-11-21T22:20:23.692Z,46.50
2018-11-21T22:22:52.437Z,48.67
2018-11-21T22:25:21.410Z,51.17
2018-11-21T22:27:49.802Z,51.20
2018-11-21T22:30:18.263Z,45.90
2018-11-21T22:32:47.731Z,51.70
2018-11-21T22:35:17.061Z,45.37
2018-11-21T22:37:51.169Z,52.17
2018-11-21T22:40:15.158Z,51.77
2018-11-21T22:42:44.319Z,50.23
2018-11-21T22:45:14.712Z,50.40
2018-11-21T22:47:43.408Z,57.00
2018-11-21T22:50:13.846Z,50.87
2018-11-21T22:52:42.257Z,52.37
2018-11-21T22:55:11.523Z,52.37
2018-11-21T22:57:40.134Z,55.77
2018-11-21T23:00:13.020Z,49.20
2018-11-21T23:02:41.556Z,51.87
2018-11-21T23:05:10.331Z,52.57
2018-11-21T23:07:39.844Z,52.50
2018-11-21T23:10:09.286Z,55.07
2018-11-21T23:12:38.210Z,54.47
2018-11-21T23:15:07.245Z,53.67
2018-11-21T23:17:35.718Z,56.97
2018-11-21T23:20:04.966Z,62.07
2018-11-21T23:22:33.394Z,57.37
2018-11-21T23:25:01.829Z,50.63
2018-11-21T23:27:30.202Z,57.43
2018-11-21T23:29:58.599Z,53.43
2018-11-21T23:32:26.977Z,50.63
2018-11-21T23:34:55.457Z,54.67
2018-11-21T23:37:23.853Z,55.20
2018-11-21T23:39:52.249Z,50.53
2018-11-21T23:42:20.859Z,52.17
2018-11-21T23:44:49.280Z,50.00
2018-11-21T23:47:17.707Z,52.93
2018-11-21T23:49:46.109Z,54.50
2018-11-21T23:52:14.547Z,56.47
2018-11-21T23:54:42.925Z,55.13
2018-11-21T23:57:16.087Z,56.43
2018-11-21T23:59:39.763Z,50.93
